Terminal Aerodrome Forecast
Issued by NWS

Home | Current Version | Previous Version | Text Only | Print | Product List | Glossary On
Versions: 1 2 3 4 5 6 7 8 9 10 11 12 13 14 15 16 17 18 19 20 21 22 23 24
062
FTUS43 KICT 280341 AAA
TAFRSL
TAF AMD
KRSL 280341Z 2804/2824 VRB06KT P6SM SCT250
     FM280800 31006KT P6SM VCTS SCT100CB SCT250
     FM281100 06006KT P6SM SCT250
     FM282000 11008KT P6SM SCT050 SCT250=

USA.gov is the U.S. government's official web portal to all federal, state and local government web resources and services.